Time;durP1;ratioP1;P1;durP2;ratioP2;P2;SDS_P1;SDS_P2;PMS_P1;PMS_P2;Temp;Humidity;BMP_temperature;BMP_pressure;BME280_temperature;BME280_humidity;BME280_pressure;Samples;Min_cycle;Max_cycle;Signal;HPM_P1;HPM_P2
2021/12/03 00:00:35;;;;;;;6.30;1.50;;;1.00;99.90;;;;;;5091770;28;20763;-74
2021/12/03 00:03:01;;;;;;;5.35;1.10;;;1.00;99.90;;;;;;5110107;28;21107;-74
2021/12/03 00:05:26;;;;;;;7.47;1.50;;;0.90;99.90;;;;;;5110042;28;20404;-74
2021/12/03 00:07:52;;;;;;;8.70;1.47;;;1.00;99.90;;;;;;5091258;28;20431;-74
2021/12/03 00:10:22;;;;;;;5.85;1.50;;;1.00;99.90;;;;;;5091055;28;20415;-74
2021/12/03 00:12:48;;;;;;;7.32;1.65;;;1.00;99.90;;;;;;5091633;28;20412;-75
2021/12/03 00:15:15;;;;;;;10.05;2.00;;;1.00;99.90;;;;;;5091913;28;21168;-75
2021/12/03 00:17:41;;;;;;;5.73;1.53;;;1.00;99.90;;;;;;5091099;28;20412;-74
2021/12/03 00:20:10;;;;;;;8.10;2.10;;;1.00;99.90;;;;;;5074989;28;20397;-75
2021/12/03 00:22:36;;;;;;;9.83;1.87;;;1.00;99.90;;;;;;5109556;28;20411;-74
2021/12/03 00:25:03;;;;;;;6.70;1.80;;;0.90;99.90;;;;;;5090999;28;20405;-75
2021/12/03 00:27:29;;;;;;;5.25;1.70;;;0.90;99.90;;;;;;5109475;28;20925;-74
2021/12/03 00:29:54;;;;;;;8.45;1.88;;;0.90;99.90;;;;;;5090719;28;20404;-75
2021/12/03 00:32:20;;;;;;;8.10;2.27;;;0.90;99.90;;;;;;5071209;28;20406;-74
2021/12/03 00:34:45;;;;;;;6.45;2.20;;;0.90;99.90;;;;;;5070607;28;20899;-74
2021/12/03 00:37:11;;;;;;;7.63;2.10;;;0.90;99.90;;;;;;5071088;28;20456;-75
2021/12/03 00:39:37;;;;;;;5.37;1.90;;;0.90;99.90;;;;;;5054465;28;20414;-74
2021/12/03 00:42:04;;;;;;;7.07;2.20;;;0.80;99.90;;;;;;5070560;28;20486;-74
2021/12/03 00:44:30;;;;;;;5.65;2.33;;;0.90;99.90;;;;;;5070639;28;20398;-74
2021/12/03 00:46:57;;;;;;;11.70;2.75;;;0.90;99.90;;;;;;5070446;28;21034;-75
2021/12/03 00:49:23;;;;;;;5.43;2.00;;;0.90;99.90;;;;;;5070675;28;20398;-74
2021/12/03 00:51:48;;;;;;;7.40;2.63;;;1.00;99.90;;;;;;5070696;28;20888;-74
2021/12/03 00:54:15;;;;;;;7.80;2.40;;;1.00;99.90;;;;;;5070709;28;20410;-74
2021/12/03 00:56:41;;;;;;;9.53;2.20;;;1.10;99.90;;;;;;5088676;28;20468;-75
2021/12/03 00:59:07;;;;;;;8.20;2.60;;;1.00;99.90;;;;;;5088697;28;20402;-74
2021/12/03 01:01:34;;;;;;;8.45;2.40;;;1.10;99.90;;;;;;5070373;28;20413;-74
2021/12/03 01:03:59;;;;;;;7.85;2.08;;;1.10;99.90;;;;;;5070630;28;20394;-74
2021/12/03 01:06:25;;;;;;;6.00;2.03;;;1.10;99.90;;;;;;5088375;28;20490;-74
2021/12/03 01:08:50;;;;;;;5.47;1.93;;;1.20;99.90;;;;;;5070185;28;20434;-74
2021/12/03 01:11:17;;;;;;;6.00;1.88;;;1.20;99.90;;;;;;5070478;28;20409;-75
2021/12/03 01:13:43;;;;;;;5.97;1.83;;;1.20;99.90;;;;;;5088704;28;20437;-74
2021/12/03 01:16:11;;;;;;;6.95;1.92;;;1.30;99.90;;;;;;5069943;28;20398;-74
2021/12/03 01:18:39;;;;;;;8.43;2.22;;;1.40;99.90;;;;;;5053599;28;20511;-74
2021/12/03 01:21:05;;;;;;;7.22;1.90;;;1.40;99.90;;;;;;5088537;28;20394;-75
2021/12/03 01:23:31;;;;;;;5.55;1.45;;;1.40;99.90;;;;;;5070066;28;20440;-74
2021/12/03 01:25:57;;;;;;;5.43;1.55;;;1.50;99.90;;;;;;5070261;28;20406;-75
2021/12/03 01:28:25;;;;;;;5.37;1.50;;;1.50;99.90;;;;;;5053295;28;20433;-75
2021/12/03 01:30:51;;;;;;;7.20;1.75;;;1.50;99.90;;;;;;5056637;28;20414;-74
2021/12/03 01:33:17;;;;;;;7.15;2.00;;;1.50;99.90;;;;;;5087924;28;20493;-75
2021/12/03 01:35:42;;;;;;;5.03;1.70;;;1.60;99.90;;;;;;5070064;28;20405;-75
2021/12/03 01:38:09;;;;;;;5.97;1.88;;;1.60;99.90;;;;;;5069984;28;20417;-74
2021/12/03 01:40:36;;;;;;;8.32;2.00;;;1.60;99.90;;;;;;5086391;28;20446;-75
2021/12/03 01:43:05;;;;;;;9.07;2.10;;;1.60;99.90;;;;;;5087891;28;20406;-75
2021/12/03 01:45:34;;;;;;;6.47;2.05;;;1.70;99.90;;;;;;5088046;28;20406;-75
2021/12/03 01:48:01;;;;;;;4.53;1.83;;;1.70;99.90;;;;;;5086729;28;20962;-75
2021/12/03 01:50:31;;;;;;;6.78;2.10;;;1.70;99.90;;;;;;5086596;28;20440;-75
2021/12/03 01:52:57;;;;;;;6.85;1.77;;;1.70;99.90;;;;;;5086729;28;20406;-75
2021/12/03 01:55:23;;;;;;;7.15;1.90;;;1.80;99.90;;;;;;5086576;28;20398;-75
2021/12/03 01:57:50;;;;;;;8.38;1.80;;;1.80;99.90;;;;;;5086469;28;20425;-75
2021/12/03 02:00:29;;;;;;;7.03;2.00;;;1.80;99.90;;;;;;5069890;28;20451;-75
2021/12/03 02:02:55;;;;;;;6.30;1.60;;;1.80;99.90;;;;;;5086202;28;20413;-75
2021/12/03 02:05:22;;;;;;;5.60;1.60;;;1.80;99.90;;;;;;5086893;28;20402;-75
2021/12/03 02:07:48;;;;;;;5.63;1.60;;;1.80;99.90;;;;;;5086082;28;20555;-75
2021/12/03 02:10:15;;;;;;;8.27;2.07;;;1.70;99.90;;;;;;5086327;28;21010;-75
2021/12/03 02:12:41;;;;;;;8.70;2.88;;;1.70;99.90;;;;;;5070044;28;20471;-75
2021/12/03 02:15:07;;;;;;;8.07;2.50;;;1.70;99.90;;;;;;5086400;28;20406;-75
2021/12/03 02:17:33;;;;;;;9.05;2.47;;;1.70;99.90;;;;;;5086253;28;20402;-75
2021/12/03 02:19:59;;;;;;;9.07;2.10;;;1.70;99.90;;;;;;5086789;28;20738;-75
2021/12/03 02:22:24;;;;;;;7.25;2.30;;;1.60;99.90;;;;;;5083058;28;20439;-75
2021/12/03 02:24:50;;;;;;;6.85;2.70;;;1.60;99.90;;;;;;5068378;28;20406;-75
2021/12/03 02:27:16;;;;;;;8.40;2.83;;;1.60;99.90;;;;;;5080866;28;20417;-75
2021/12/03 02:29:42;;;;;;;8.25;3.10;;;1.50;99.90;;;;;;5088641;28;20414;-75
2021/12/03 02:32:07;;;;;;;8.27;2.80;;;1.60;99.90;;;;;;5092449;28;20403;-75
2021/12/03 02:34:36;;;;;;;8.73;2.70;;;1.60;99.90;;;;;;5092579;28;20408;-75
2021/12/03 02:37:02;;;;;;;8.80;2.78;;;1.60;99.90;;;;;;5075847;28;20423;-75
2021/12/03 02:39:28;;;;;;;8.65;2.47;;;1.60;99.90;;;;;;5088227;28;20403;-75
2021/12/03 02:41:54;;;;;;;7.65;2.67;;;1.70;99.90;;;;;;5089000;28;20405;-75
2021/12/03 02:44:19;;;;;;;7.23;2.50;;;1.70;99.90;;;;;;5071926;28;20504;-75
2021/12/03 02:46:45;;;;;;;10.60;3.38;;;1.80;99.90;;;;;;5088820;28;20514;-73
2021/12/03 02:49:14;;;;;;;8.02;2.50;;;1.80;99.90;;;;;;5087944;28;20835;-75
2021/12/03 02:51:40;;;;;;;9.43;3.40;;;1.80;99.90;;;;;;5089463;28;20412;-76
2021/12/03 02:54:06;;;;;;;7.90;3.05;;;1.90;99.90;;;;;;5089633;28;20410;-76
2021/12/03 02:56:32;;;;;;;7.97;3.10;;;1.90;99.90;;;;;;5093179;28;20404;-76
2021/12/03 02:58:58;;;;;;;9.77;3.33;;;1.90;99.90;;;;;;5110847;28;20404;-76
2021/12/03 03:01:23;;;;;;;9.03;3.70;;;1.80;99.90;;;;;;5092982;28;20400;-73
2021/12/03 03:03:49;;;;;;;8.05;3.17;;;1.70;99.90;;;;;;5092971;28;20408;-73
2021/12/03 03:06:15;;;;;;;8.32;2.95;;;1.70;99.90;;;;;;5126671;27;20423;-73
2021/12/03 03:08:42;;;;;;;8.87;3.20;;;1.70;99.90;;;;;;5092507;28;20432;-73
2021/12/03 03:11:09;;;;;;;11.13;3.53;;;1.70;99.90;;;;;;5092793;28;20457;-73
2021/12/03 03:13:35;;;;;;;8.57;3.50;;;1.70;99.90;;;;;;5092239;28;20852;-73
2021/12/03 03:16:02;;;;;;;8.68;3.17;;;1.70;99.90;;;;;;5111224;28;20438;-73
2021/12/03 03:18:28;;;;;;;8.02;3.20;;;1.70;99.90;;;;;;5093101;28;20765;-73
2021/12/03 03:20:57;;;;;;;6.43;3.08;;;1.60;99.90;;;;;;5092223;28;20925;-73
2021/12/03 03:23:23;;;;;;;9.00;3.30;;;1.60;99.90;;;;;;5092638;28;20408;-73
2021/12/03 03:25:50;;;;;;;7.95;2.90;;;1.60;99.90;;;;;;5092727;28;20414;-73
2021/12/03 03:28:16;;;;;;;9.68;2.72;;;1.60;99.90;;;;;;5092000;28;20435;-74
2021/12/03 03:30:45;;;;;;;7.35;2.30;;;1.60;99.90;;;;;;5088970;28;20409;-74
2021/12/03 03:33:12;;;;;;;7.57;2.72;;;1.60;99.90;;;;;;5088891;28;20979;-73
2021/12/03 03:35:38;;;;;;;7.57;2.50;;;1.60;99.90;;;;;;5090019;28;20957;-73
2021/12/03 03:38:05;;;;;;;8.00;2.50;;;1.60;99.90;;;;;;5088533;28;20406;-73
2021/12/03 03:40:31;;;;;;;9.15;2.88;;;1.60;99.90;;;;;;5088172;28;20402;-74
2021/12/03 03:42:58;;;;;;;6.43;3.00;;;1.60;99.90;;;;;;5088932;28;20434;-73
2021/12/03 03:45:25;;;;;;;7.07;3.42;;;1.50;99.90;;;;;;5088854;28;20413;-73
2021/12/03 03:47:51;;;;;;;8.73;3.63;;;1.50;99.90;;;;;;5089817;28;20439;-74
2021/12/03 03:50:19;;;;;;;10.27;4.22;;;1.50;99.90;;;;;;5089489;28;20402;-74
2021/12/03 03:52:45;;;;;;;10.07;4.20;;;1.50;99.90;;;;;;5088387;28;20429;-74
2021/12/03 03:55:13;;;;;;;10.43;5.00;;;1.40;99.90;;;;;;5088170;28;20410;-74
2021/12/03 03:57:41;;;;;;;11.00;5.65;;;1.50;99.90;;;;;;5088069;28;20406;-74
2021/12/03 04:00:10;;;;;;;14.98;7.45;;;1.40;99.90;;;;;;5088806;28;20409;-74
2021/12/03 04:02:36;;;;;;;16.60;8.48;;;1.40;99.90;;;;;;5087763;28;20406;-74
2021/12/03 04:05:02;;;;;;;19.27;9.97;;;1.50;99.90;;;;;;5087844;28;20409;-74
2021/12/03 04:07:28;;;;;;;21.52;10.52;;;1.40;99.90;;;;;;5087904;28;20580;-73
2021/12/03 04:09:53;;;;;;;19.33;11.55;;;1.50;99.90;;;;;;5089314;28;20505;-73
2021/12/03 04:12:19;;;;;;;21.93;12.33;;;1.50;99.90;;;;;;5088226;28;20417;-74
2021/12/03 04:14:45;;;;;;;24.53;13.27;;;1.50;99.90;;;;;;5087685;28;20403;-74
2021/12/03 04:17:10;;;;;;;25.58;14.98;;;1.50;99.90;;;;;;5088344;28;20402;-74
2021/12/03 04:19:36;;;;;;;27.47;16.33;;;1.50;99.90;;;;;;5070608;28;20405;-74
2021/12/03 04:22:03;;;;;;;30.52;16.80;;;1.50;99.90;;;;;;5088361;28;20479;-74
2021/12/03 04:24:28;;;;;;;30.35;18.73;;;1.50;99.90;;;;;;5087479;28;20405;-74
2021/12/03 04:26:54;;;;;;;31.30;20.10;;;1.50;99.90;;;;;;5087820;28;20398;-73
2021/12/03 04:29:20;;;;;;;33.10;21.37;;;1.60;99.90;;;;;;5087589;28;20422;-74
2021/12/03 04:31:46;;;;;;;39.10;24.10;;;1.60;99.90;;;;;;5090948;28;20889;-74
2021/12/03 04:34:12;;;;;;;37.22;25.52;;;1.60;99.90;;;;;;5109489;28;20510;-74
2021/12/03 04:36:37;;;;;;;40.67;27.08;;;1.60;99.90;;;;;;5090793;28;20412;-74
2021/12/03 04:39:04;;;;;;;41.70;28.33;;;1.60;99.90;;;;;;5109224;28;20420;-74
2021/12/03 04:41:29;;;;;;;44.45;29.23;;;1.60;99.90;;;;;;5090899;28;20404;-74
2021/12/03 04:43:55;;;;;;;47.50;29.70;;;1.60;99.90;;;;;;5091078;28;21076;-74
2021/12/03 04:46:22;;;;;;;47.10;32.25;;;1.60;99.90;;;;;;5091047;28;20743;-74
2021/12/03 04:48:48;;;;;;;46.65;32.53;;;1.60;99.90;;;;;;5089697;28;20432;-73
2021/12/03 04:51:14;;;;;;;48.22;33.03;;;1.70;99.90;;;;;;5090610;28;20441;-74
2021/12/03 04:53:40;;;;;;;46.83;33.23;;;1.70;99.90;;;;;;5090662;28;20920;-74
2021/12/03 04:56:05;;;;;;;45.03;32.08;;;1.70;99.90;;;;;;5090356;28;20403;-74
2021/12/03 04:58:31;;;;;;;46.13;33.20;;;1.70;99.90;;;;;;5090640;28;20400;-73
2021/12/03 05:00:58;;;;;;;42.73;30.47;;;1.70;99.90;;;;;;5073950;28;20423;-74
2021/12/03 05:03:26;;;;;;;42.17;31.13;;;1.70;99.90;;;;;;5090577;28;20428;-74
2021/12/03 05:05:57;;;;;;;44.85;32.05;;;1.70;99.90;;;;;;5090170;28;20486;-74
2021/12/03 05:08:27;;;;;;;40.70;30.95;;;1.70;99.90;;;;;;5090348;28;20484;-74
2021/12/03 05:10:56;;;;;;;40.33;29.98;;;1.70;99.90;;;;;;5089879;28;20832;-74
2021/12/03 05:13:30;;;;;;;38.33;29.88;;;1.80;99.90;;;;;;5090296;28;20492;-74
2021/12/03 05:15:57;;;;;;;35.10;28.00;;;1.70;99.90;;;;;;5108247;28;20503;-74
2021/12/03 05:18:25;;;;;;;39.45;30.13;;;1.70;99.90;;;;;;5090437;28;20445;-74
2021/12/03 05:20:52;;;;;;;35.60;28.05;;;1.70;99.90;;;;;;5073626;28;20894;-74
2021/12/03 05:23:19;;;;;;;38.57;28.80;;;1.70;99.90;;;;;;5109029;28;21110;-74
2021/12/03 05:25:45;;;;;;;36.90;27.92;;;1.70;99.90;;;;;;5089615;28;20435;-73
2021/12/03 05:28:11;;;;;;;33.38;26.00;;;1.70;99.90;;;;;;5090150;28;20595;-73
2021/12/03 05:30:38;;;;;;;34.10;26.20;;;1.70;99.90;;;;;;5108406;28;20479;-73
2021/12/03 05:33:05;;;;;;;35.15;26.25;;;1.70;99.90;;;;;;5090362;28;20400;-73
2021/12/03 05:35:31;;;;;;;36.13;27.13;;;1.70;99.90;;;;;;5090299;28;20447;-73
2021/12/03 05:37:57;;;;;;;34.83;26.02;;;1.70;99.90;;;;;;5073124;28;20407;-73
2021/12/03 05:40:23;;;;;;;31.98;25.42;;;1.70;99.90;;;;;;5073475;28;20483;-73
2021/12/03 05:42:50;;;;;;;32.90;25.10;;;1.70;99.90;;;;;;5090069;28;20457;-73
2021/12/03 05:45:20;;;;;;;30.83;24.13;;;1.70;99.90;;;;;;5108578;28;20941;-73
2021/12/03 05:47:46;;;;;;;31.55;23.83;;;1.70;99.90;;;;;;5089869;28;20805;-73
2021/12/03 05:50:14;;;;;;;34.78;25.10;;;1.70;99.90;;;;;;5073087;28;20412;-73
2021/12/03 05:52:39;;;;;;;30.15;23.70;;;1.70;99.90;;;;;;5090200;28;20422;-73
2021/12/03 05:55:07;;;;;;;27.52;22.20;;;1.70;99.90;;;;;;5108439;28;20396;-73
2021/12/03 05:57:33;;;;;;;27.25;22.13;;;1.70;99.90;;;;;;5089721;28;20414;-74
2021/12/03 05:59:59;;;;;;;28.48;21.25;;;1.70;99.90;;;;;;5090096;28;20758;-73
2021/12/03 06:02:24;;;;;;;28.67;22.40;;;1.70;99.90;;;;;;5094203;28;20857;-74
2021/12/03 06:04:51;;;;;;;28.67;21.97;;;1.70;99.90;;;;;;5093622;28;20513;-73
2021/12/03 06:07:16;;;;;;;25.25;21.25;;;1.70;99.90;;;;;;5093591;28;20472;-73
2021/12/03 06:09:42;;;;;;;27.55;21.02;;;1.80;99.90;;;;;;5093767;28;20416;-73
2021/12/03 06:12:09;;;;;;;26.73;21.10;;;1.80;99.90;;;;;;5093918;28;20409;-73
2021/12/03 06:14:35;;;;;;;27.23;22.20;;;1.70;99.90;;;;;;5093113;28;20453;-73
2021/12/03 06:17:00;;;;;;;28.80;21.70;;;1.70;99.90;;;;;;5076915;28;20796;-73
2021/12/03 06:19:26;;;;;;;28.17;22.93;;;1.70;99.90;;;;;;5077174;28;20396;-73
2021/12/03 06:21:52;;;;;;;30.20;22.90;;;1.70;99.90;;;;;;5093870;28;20443;-73
2021/12/03 06:24:18;;;;;;;26.80;22.45;;;1.70;99.90;;;;;;5093564;28;20902;-73
2021/12/03 06:26:44;;;;;;;27.50;23.08;;;1.60;99.90;;;;;;5092874;28;20401;-75
2021/12/03 06:29:10;;;;;;;29.70;23.52;;;1.60;99.90;;;;;;5093550;28;20434;-73
2021/12/03 06:31:36;;;;;;;29.58;23.40;;;1.60;99.90;;;;;;5076824;28;20404;-73
2021/12/03 06:34:02;;;;;;;26.30;21.92;;;1.60;99.90;;;;;;5076427;28;20924;-73
2021/12/03 06:36:28;;;;;;;27.25;22.52;;;1.50;99.90;;;;;;5092469;28;20501;-73
2021/12/03 06:38:53;;;;;;;27.50;23.30;;;1.60;99.90;;;;;;5074449;28;20412;-74
2021/12/03 06:41:19;;;;;;;27.27;22.90;;;1.60;99.90;;;;;;5110578;28;20423;-71
2021/12/03 06:43:45;;;;;;;27.73;22.05;;;1.50;99.90;;;;;;5074138;28;20458;-71
2021/12/03 06:46:10;;;;;;;28.23;22.13;;;1.60;99.90;;;;;;5091238;28;20396;-73
2021/12/03 06:48:36;;;;;;;25.67;22.03;;;1.60;99.90;;;;;;5091027;28;20469;-73
2021/12/03 06:51:02;;;;;;;29.80;23.10;;;1.60;99.90;;;;;;5075822;28;20487;-73
2021/12/03 06:53:39;;;;;;;29.45;23.70;;;1.60;99.90;;;;;;5092311;28;20408;-73
2021/12/03 06:56:08;;;;;;;28.98;24.33;;;1.70;99.90;;;;;;5075822;28;20441;-73
2021/12/03 06:58:34;;;;;;;27.38;23.25;;;1.70;99.90;;;;;;5092480;28;20400;-73
2021/12/03 07:01:00;;;;;;;35.20;25.10;;;1.70;99.90;;;;;;5092366;28;20405;-73
2021/12/03 07:03:26;;;;;;;31.42;25.63;;;1.70;99.90;;;;;;5092999;28;20404;-74
2021/12/03 07:05:51;;;;;;;32.33;25.48;;;1.80;99.90;;;;;;5092671;28;20454;-73
2021/12/03 07:08:17;;;;;;;30.40;24.90;;;1.80;99.90;;;;;;5110644;28;20428;-73
2021/12/03 07:10:43;;;;;;;31.63;24.90;;;1.80;99.90;;;;;;5092541;28;20473;-74
2021/12/03 07:13:08;;;;;;;32.88;24.83;;;1.90;99.90;;;;;;5092129;28;20450;-74
2021/12/03 07:15:34;;;;;;;29.17;23.80;;;1.90;99.90;;;;;;5092833;28;20442;-74
2021/12/03 07:18:00;;;;;;;32.72;26.30;;;1.90;99.90;;;;;;5092626;28;20404;-73
2021/12/03 07:20:27;;;;;;;30.33;24.42;;;1.90;99.90;;;;;;5075539;28;20407;-74
2021/12/03 07:22:54;;;;;;;29.65;24.38;;;2.00;99.90;;;;;;5092528;28;20479;-73
2021/12/03 07:25:21;;;;;;;31.07;25.33;;;2.00;99.90;;;;;;5092330;28;20513;-73
2021/12/03 07:27:46;;;;;;;31.83;23.52;;;2.00;99.90;;;;;;5092244;28;20459;-73
2021/12/03 07:30:14;;;;;;;28.48;21.88;;;2.00;99.90;;;;;;5089201;28;20414;-73
2021/12/03 07:32:40;;;;;;;28.55;23.15;;;2.00;99.90;;;;;;5088311;28;20406;-74
2021/12/03 07:35:07;;;;;;;26.98;22.20;;;2.00;99.90;;;;;;5088715;28;20441;-74
2021/12/03 07:37:33;;;;;;;25.17;15.77;;;2.00;99.90;;;;;;5090110;28;20048;-73
2021/12/03 07:40:02;;;;;;;22.58;14.93;;;2.00;99.90;;;;;;5090392;28;20047;-74
2021/12/03 07:42:27;;;;;;;23.85;15.68;;;2.10;99.90;;;;;;5091225;28;20048;-75
2021/12/03 07:44:53;;;;;;;20.83;13.65;;;2.10;99.90;;;;;;5091090;28;20769;-74
2021/12/03 07:47:19;;;;;;;;;;;2.10;99.90;;;;;;5090639;28;20080;-74
2021/12/03 07:49:46;;;;;;;;;;;2.10;99.90;;;;;;5090429;28;19994;-74
2021/12/03 07:52:12;;;;;;;;;;;2.10;99.90;;;;;;5091810;28;20309;-74
2021/12/03 07:54:38;;;;;;;;;;;2.10;99.90;;;;;;5073297;28;19920;-74
2021/12/03 07:57:04;;;;;;;;;;;2.10;99.90;;;;;;5090043;28;19927;-74
2021/12/03 07:59:30;;;;;;;;;;;2.20;99.90;;;;;;5090155;28;19927;-74
2021/12/03 08:01:55;;;;;;;;;;;2.20;99.90;;;;;;5089792;28;20037;-74
2021/12/03 08:04:21;;;;;;;;;;;2.20;99.90;;;;;;5090160;28;19927;-74
2021/12/03 08:06:51;;;;;;;15.82;8.75;;;2.20;99.90;;;;;;5089169;28;19970;-75
2021/12/03 08:09:17;;;;;;;18.55;10.98;;;2.20;99.90;;;;;;5089200;28;20048;-74
2021/12/03 08:11:42;;;;;;;23.25;15.93;;;2.20;99.90;;;;;;5088290;28;20402;-74
2021/12/03 08:14:08;;;;;;;23.38;17.00;;;2.20;99.90;;;;;;5071276;28;20491;-74
2021/12/03 08:16:34;;;;;;;18.67;11.98;;;2.20;99.90;;;;;;5089266;28;20044;-74
2021/12/03 08:18:59;;;;;;;19.02;10.55;;;2.20;99.90;;;;;;5089452;28;20127;-74
2021/12/03 08:21:25;;;;;;;18.70;10.85;;;2.20;99.90;;;;;;5089514;28;20039;-74
2021/12/03 08:23:51;;;;;;;18.73;9.52;;;2.20;99.90;;;;;;5088338;28;20100;-74
2021/12/03 08:26:16;;;;;;;16.70;9.63;;;2.20;99.90;;;;;;5089322;28;20072;-74
2021/12/03 08:28:43;;;;;;;21.73;13.48;;;2.20;99.90;;;;;;5070775;28;20796;-74
2021/12/03 08:31:14;;;;;;;18.58;13.90;;;2.20;99.90;;;;;;5074396;28;20431;-74
2021/12/03 08:33:41;;;;;;;18.55;12.68;;;2.30;99.90;;;;;;5108625;28;20396;-74
2021/12/03 08:36:07;;;;;;;18.25;12.65;;;2.30;99.90;;;;;;5091243;28;20404;-74
2021/12/03 08:38:32;;;;;;;21.38;12.32;;;2.30;99.90;;;;;;5074074;28;20407;-74
2021/12/03 08:40:58;;;;;;;18.00;11.35;;;2.30;99.90;;;;;;5074586;28;20399;-74
2021/12/03 08:43:24;;;;;;;16.27;10.60;;;2.40;99.90;;;;;;5108837;28;20438;-74
2021/12/03 08:45:54;;;;;;;18.48;10.60;;;2.40;99.90;;;;;;5108853;28;20445;-74
2021/12/03 08:48:21;;;;;;;15.77;9.90;;;2.40;99.90;;;;;;5090823;28;20511;-74
2021/12/03 08:50:51;;;;;;;18.67;10.87;;;2.50;99.90;;;;;;5091006;28;20409;-74
2021/12/03 08:56:01;;;;;;;19.10;10.75;;;2.60;99.90;;;;;;5109111;28;20397;-74
2021/12/03 08:58:27;;;;;;;15.32;7.82;;;2.60;99.90;;;;;;5091922;28;20100;-74
2021/12/03 09:00:53;;;;;;;10.73;7.28;;;2.60;99.90;;;;;;5092208;28;20051;-74
2021/12/03 09:03:19;;;;;;;14.77;7.50;;;2.70;99.90;;;;;;5110060;28;20052;-74
2021/12/03 09:05:46;;;;;;;15.90;6.70;;;2.70;99.90;;;;;;5091919;28;20582;-75
2021/12/03 09:08:12;;;;;;;15.82;7.75;;;2.70;99.90;;;;;;5091001;28;20052;-74
2021/12/03 09:10:38;;;;;;;12.93;7.68;;;2.80;99.90;;;;;;5091719;28;20386;-75
2021/12/03 09:13:04;;;;;;;;;;;2.80;99.90;;;;;;5110305;28;20042;-74
2021/12/03 09:15:38;;;;;;;;;;;2.80;99.90;;;;;;5091849;28;19923;-74
2021/12/03 09:18:29;;;;;;;;;;;2.80;99.90;;;;;;5091966;28;19979;-75
2021/12/03 09:20:57;;;;;;;;;;;2.90;99.90;;;;;;5091148;28;20408;-75
2021/12/03 09:25:54;;;;;;;17.95;8.70;;;2.80;99.90;;;;;;5091801;28;20409;-74
2021/12/03 09:28:20;;;;;;;20.13;12.88;;;2.80;99.90;;;;;;5108681;28;20569;-74
2021/12/03 09:30:47;;;;;;;22.52;13.05;;;2.90;99.90;;;;;;5086662;28;20429;-75
2021/12/03 09:33:17;;;;;;;19.15;12.75;;;2.90;99.90;;;;;;5086972;28;20429;-74
2021/12/03 09:35:48;;;;;;;24.55;14.77;;;2.90;99.90;;;;;;5071373;28;20772;-74
2021/12/03 09:38:14;;;;;;;23.70;14.73;;;2.90;99.90;;;;;;5091296;28;20417;-75
2021/12/03 09:40:41;;;;;;;22.48;15.15;;;2.90;99.90;;;;;;5090866;28;20402;-73
2021/12/03 09:43:08;;;;;;;24.50;15.63;;;2.90;99.90;;;;;;5090964;28;20752;-74
2021/12/03 09:45:35;;;;;;;23.48;15.70;;;3.00;99.90;;;;;;5073834;28;20405;-74
2021/12/03 09:48:11;;;;;;;26.50;16.38;;;3.00;99.90;;;;;;5073478;28;20465;-74
2021/12/03 09:50:39;;;;;;;25.95;16.75;;;3.00;99.90;;;;;;5092116;28;20449;-73
2021/12/03 09:54:04;;;;;;;30.42;17.80;;;3.00;99.90;;;;;;5090854;28;20401;-73
2021/12/03 09:55:53;;;;;;;26.55;18.10;;;3.00;99.90;;;;;;5085100;28;20463;-74
2021/12/03 09:58:45;;;;;;;27.90;18.05;;;3.10;99.90;;;;;;5091410;28;20410;-74
2021/12/03 10:01:19;;;;;;;26.85;19.08;;;3.10;99.90;;;;;;5090744;28;20466;-74
2021/12/03 10:04:06;;;;;;;29.30;18.98;;;3.20;99.90;;;;;;5090427;28;20915;-74
2021/12/03 10:12:17;;;;;;;32.03;22.42;;;3.20;99.90;;;;;;5091683;28;20992;-74
2021/12/03 10:20:34;;;;;;;32.83;23.40;;;3.30;99.90;;;;;;5091716;28;20489;-74
2021/12/03 10:31:38;;;;;;;31.38;22.90;;;3.30;99.90;;;;;;5093682;28;20404;-74
2021/12/03 10:42:29;;;;;;;34.05;22.23;;;3.40;99.90;;;;;;5093459;28;20480;-74
2021/12/03 10:47:55;;;;;;;36.38;23.50;;;3.40;99.90;;;;;;5091607;28;21125;-74
2021/12/03 10:50:43;;;;;;;33.47;23.07;;;3.40;99.90;;;;;;5092806;28;20397;-74
2021/12/03 10:53:23;;;;;;;33.88;23.95;;;3.50;99.90;;;;;;5110968;28;20407;-74
2021/12/03 10:56:17;;;;;;;37.17;22.80;;;3.40;99.90;;;;;;5111390;28;20415;-74
2021/12/03 11:04:35;;;;;;;30.35;20.52;;;3.50;99.90;;;;;;5093138;28;20405;-74
2021/12/03 11:07:16;;;;;;;32.50;20.77;;;3.50;99.90;;;;;;5090903;28;20412;-74
2021/12/03 11:38:52;;;;;;;34.40;18.40;;;3.50;99.90;;;;;;5088331;28;20409;-73
2021/12/03 11:54:00;;;;;;;23.38;12.52;;;3.60;99.90;;;;;;5088403;28;20434;-74
2021/12/03 12:09:39;;;;;;;17.88;7.32;;;3.70;99.90;;;;;;5087619;28;20422;-75
2021/12/03 12:36:21;;;;;;;16.73;6.40;;;3.70;99.90;;;;;;5090639;28;20485;-74
2021/12/03 13:09:22;;;;;;;13.95;7.72;;;3.70;99.90;;;;;;5089126;28;20467;-74
2021/12/03 13:25:37;;;;;;;15.13;8.23;;;3.60;99.90;;;;;;5107297;28;20735;-74
2021/12/03 13:28:33;;;;;;;13.57;8.20;;;3.60;99.90;;;;;;5084414;28;20415;-74
2021/12/03 13:46:15;;;;;;;12.57;8.03;;;3.60;99.90;;;;;;5090107;28;20447;-75
2021/12/03 14:44:28;;;;;;;13.80;6.77;;;4.00;99.90;;;;;;5092871;28;20466;-74
2021/12/03 14:52:46;;;;;;;13.23;6.50;;;4.00;99.90;;;;;;5110456;28;20901;-73
2021/12/03 14:55:25;;;;;;;14.88;6.60;;;4.00;99.90;;;;;;5110883;28;20406;-74
2021/12/03 14:57:56;;;;;;;15.05;6.47;;;4.10;99.90;;;;;;5075890;28;20900;-74
2021/12/03 15:08:34;;;;;;;12.20;6.13;;;4.10;99.90;;;;;;5110576;28;20435;-73
2021/12/03 15:35:06;;;;;;;6.57;5.15;;;4.30;99.90;;;;;;5072416;28;20109;-74
2021/12/03 16:06:39;;;;;;;15.90;12.50;;;4.20;99.90;;;;;;5090753;28;20098;-74
2021/12/03 16:14:49;;;;;;;18.35;13.05;;;4.20;99.90;;;;;;5071982;28;20083;-75
2021/12/03 16:17:33;;;;;;;16.80;11.90;;;4.20;99.90;;;;;;5071585;28;20509;-74
2021/12/03 16:25:18;;;;;;;22.70;14.20;;;4.20;99.90;;;;;;5091689;28;20055;-71
2021/12/03 16:44:29;;;;;;;25.35;18.25;;;4.30;99.90;;;;;;5089906;28;20066;-74
2021/12/03 16:47:02;;;;;;;21.85;15.95;;;4.20;99.90;;;;;;5090201;28;20087;-74
2021/12/03 16:52:14;;;;;;;23.85;17.17;;;4.30;99.90;;;;;;5109340;28;20044;-74
2021/12/03 16:54:58;;;;;;;24.58;17.70;;;4.20;99.90;;;;;;5108791;28;20052;-74
2021/12/03 16:57:31;;;;;;;27.60;19.02;;;4.20;99.90;;;;;;5108911;28;20127;-74
2021/12/03 16:59:59;;;;;;;26.75;18.30;;;4.20;99.90;;;;;;5086050;28;20047;-74
2021/12/03 17:02:33;;;;;;;26.83;17.80;;;4.30;99.90;;;;;;5069085;28;20488;-75
2021/12/03 17:05:13;;;;;;;25.63;18.13;;;4.30;99.90;;;;;;5089582;28;20101;-75
2021/12/03 17:13:08;;;;;;;25.52;18.58;;;4.30;99.90;;;;;;5107832;28;20078;-75
2021/12/03 17:46:14;;;;;;;31.52;20.73;;;4.40;99.90;;;;;;5107252;28;20059;-75
2021/12/03 17:53:54;;;;;;;32.20;22.02;;;4.40;99.90;;;;;;5090250;28;20093;-74
2021/12/03 17:56:20;;;;;;;30.38;19.90;;;4.40;99.90;;;;;;5090380;28;20097;-75
2021/12/03 17:58:53;;;;;;;33.47;21.08;;;4.40;99.90;;;;;;5090728;28;20039;-74
2021/12/03 18:01:25;;;;;;;31.10;23.23;;;4.40;99.90;;;;;;5090584;28;20137;-74
2021/12/03 18:04:13;;;;;;;30.42;19.98;;;4.40;99.90;;;;;;5094012;28;20031;-74
2021/12/03 18:07:03;;;;;;;33.72;21.02;;;4.40;99.90;;;;;;5093685;28;20143;-74
2021/12/03 18:12:58;;;;;;;31.10;20.23;;;4.40;99.90;;;;;;5061646;28;20456;-74
2021/12/03 18:45:22;;;;;;;33.35;21.67;;;4.50;99.90;;;;;;5110373;28;20509;-74
2021/12/03 18:55:54;;;;;;;38.72;22.67;;;4.60;99.90;;;;;;5091070;28;20753;-74
2021/12/03 18:58:24;;;;;;;35.63;21.65;;;4.50;99.90;;;;;;5093489;28;20044;-74
2021/12/03 19:00:51;;;;;;;41.27;29.43;;;4.60;99.90;;;;;;5109723;28;20419;-74
2021/12/03 19:06:12;;;;;;;52.58;35.17;;;4.60;99.90;;;;;;5110226;28;20462;-74
2021/12/03 19:08:49;;;;;;;47.38;34.90;;;4.60;99.90;;;;;;5091216;28;20459;-74
2021/12/03 19:11:22;;;;;;;47.42;34.13;;;4.60;99.90;;;;;;5098274;28;20404;-74
2021/12/03 19:13:50;;;;;;;46.42;34.63;;;4.60;99.90;;;;;;5075471;28;21104;-74
2021/12/03 19:16:18;;;;;;;58.03;39.85;;;4.60;99.90;;;;;;5091855;28;20405;-75
2021/12/03 19:18:45;;;;;;;51.15;37.00;;;4.60;99.90;;;;;;5092265;28;20898;-73
2021/12/03 19:21:15;;;;;;;46.95;33.40;;;4.60;99.90;;;;;;5110156;28;20499;-70
2021/12/03 19:23:41;;;;;;;47.47;33.28;;;4.60;99.90;;;;;;5110050;28;20440;-71
2021/12/03 19:26:07;;;;;;;50.90;36.05;;;4.60;99.90;;;;;;5092277;28;20412;-70
2021/12/03 19:28:33;;;;;;;56.40;37.77;;;4.60;99.90;;;;;;5075031;28;20436;-73
2021/12/03 19:30:59;;;;;;;52.78;36.90;;;4.60;99.90;;;;;;5073706;28;20768;-73
2021/12/03 19:33:25;;;;;;;54.50;37.10;;;4.60;99.90;;;;;;5110760;28;20404;-73
2021/12/03 19:35:51;;;;;;;59.28;39.10;;;4.60;99.90;;;;;;5109749;28;20420;-73
2021/12/03 19:38:18;;;;;;;54.87;37.80;;;4.60;99.90;;;;;;5092050;28;20428;-73
2021/12/03 19:40:53;;;;;;;53.90;36.38;;;4.60;99.90;;;;;;5091520;28;20930;-74
2021/12/03 19:43:26;;;;;;;58.13;38.33;;;4.60;99.90;;;;;;5100103;28;20426;-74
2021/12/03 19:46:00;;;;;;;51.10;36.45;;;4.70;99.90;;;;;;5090939;28;20410;-74
2021/12/03 19:48:33;;;;;;;49.05;34.47;;;4.60;99.90;;;;;;5088643;28;20425;-74
2021/12/03 19:50:59;;;;;;;53.72;36.95;;;4.70;99.90;;;;;;5103599;28;20465;-75